Time;durP1;ratioP1;P1;durP2;ratioP2;P2;SDS_P1;SDS_P2;PMS_P1;PMS_P2;Temp;Humidity;BMP_temperature;BMP_pressure;BME280_temperature;BME280_humidity;BME280_pressure;Samples;Min_cycle;Max_cycle;Signal;HPM_P1;HPM_P2
2023/10/04 00:01:45;;;;;;;6.10;2.87;;;;;;;;;;4968546;28;20230;-85
2023/10/04 00:04:10;;;;;;;6.97;2.93;;;;;;;;;;4944473;28;20234;-86
2023/10/04 00:06:39;;;;;;;4.63;2.40;;;;;;;;;;4921455;29;20227;-87
2023/10/04 00:09:10;;;;;;;5.00;2.63;;;;;;;;;;4938995;28;20230;-84
2023/10/04 00:11:36;;;;;;;4.67;2.53;;;;;;;;;;4941628;28;20227;-88
2023/10/04 00:14:05;;;;;;;5.43;3.03;;;;;;;;;;4941136;29;20211;-84
2023/10/04 00:16:34;;;;;;;8.27;2.93;;;;;;;;;;4920764;29;20219;-83
2023/10/04 00:18:59;;;;;;;7.77;2.83;;;;;;;;;;4941099;29;20234;-85
2023/10/04 00:21:28;;;;;;;4.60;2.77;;;;;;;;;;4939758;28;20231;-86
2023/10/04 00:23:53;;;;;;;5.57;2.97;;;;;;;;;;4932199;28;20223;-85
2023/10/04 00:26:19;;;;;;;3.70;2.43;;;;;;;;;;4923414;28;20207;-87
2023/10/04 00:28:49;;;;;;;8.00;3.00;;;;;;;;;;4911789;29;20254;-85
2023/10/04 00:31:18;;;;;;;4.47;2.50;;;;;;;;;;4921962;28;20226;-85
2023/10/04 00:33:49;;;;;;;6.03;2.67;;;;;;;;;;4928483;28;20247;-85
2023/10/04 00:36:21;;;;;;;3.30;2.17;;;;;;;;;;4935989;28;20231;-86
2023/10/04 00:38:49;;;;;;;6.50;3.03;;;;;;;;;;4922418;29;20277;-86
2023/10/04 00:41:14;;;;;;;5.30;2.80;;;;;;;;;;4937117;28;20226;-87
2023/10/04 00:43:50;;;;;;;6.17;2.63;;;;;;;;;;4936834;29;20232;-86
2023/10/04 00:46:18;;;;;;;5.60;2.70;;;;;;;;;;4932802;28;20266;-85
2023/10/04 00:48:44;;;;;;;5.00;2.53;;;;;;;;;;4937449;28;20227;-88
2023/10/04 00:51:13;;;;;;;4.80;3.10;;;;;;;;;;4938977;28;20223;-87
2023/10/04 00:53:39;;;;;;;6.83;2.60;;;;;;;;;;4913586;29;20714;-87
2023/10/04 00:56:14;;;;;;;6.13;2.90;;;;;;;;;;4920043;28;20244;-85
2023/10/04 00:58:40;;;;;;;4.57;2.37;;;;;;;;;;4934081;28;20250;-88
2023/10/04 01:01:06;;;;;;;6.87;3.20;;;;;;;;;;4938447;28;20233;-86
2023/10/04 01:03:36;;;;;;;9.00;2.93;;;;;;;;;;4940941;29;20219;-87
2023/10/04 01:06:05;;;;;;;4.23;2.90;;;;;;;;;;4922623;29;20211;-85
2023/10/04 01:08:32;;;;;;;4.13;2.93;;;;;;;;;;4947551;28;20220;-88
2023/10/04 01:10:58;;;;;;;3.80;2.53;;;;;;;;;;4922772;29;20245;-85
2023/10/04 01:13:26;;;;;;;6.40;2.93;;;;;;;;;;4929008;28;20638;-88
2023/10/04 01:15:59;;;;;;;5.93;2.60;;;;;;;;;;4922153;28;20234;-86
2023/10/04 01:18:25;;;;;;;6.43;3.23;;;;;;;;;;4938065;28;20234;-88
2023/10/04 01:20:53;;;;;;;3.93;2.97;;;;;;;;;;4917673;29;20223;-85
2023/10/04 01:23:22;;;;;;;4.00;2.80;;;;;;;;;;4931826;28;20310;-86
2023/10/04 01:25:47;;;;;;;8.10;2.90;;;;;;;;;;4933284;29;20831;-86
2023/10/04 01:28:18;;;;;;;4.27;2.37;;;;;;;;;;4931807;28;20297;-86
2023/10/04 01:30:49;;;;;;;3.33;2.10;;;;;;;;;;4937094;28;20325;-88
2023/10/04 01:33:18;;;;;;;3.63;2.57;;;;;;;;;;4929596;28;20238;-85
2023/10/04 01:35:45;;;;;;;6.97;2.37;;;;;;;;;;4937131;29;20282;-84
2023/10/04 01:38:11;;;;;;;4.30;2.40;;;;;;;;;;4935531;28;20222;-87
2023/10/04 01:40:44;;;;;;;6.30;3.13;;;;;;;;;;4938150;29;20230;-85
2023/10/04 01:43:17;;;;;;;6.70;2.70;;;;;;;;;;4934736;28;20234;-84
2023/10/04 01:45:44;;;;;;;4.63;2.50;;;;;;;;;;4933818;28;20223;-84
2023/10/04 01:48:10;;;;;;;3.77;2.30;;;;;;;;;;4949421;28;20227;-86
2023/10/04 01:50:40;;;;;;;4.40;2.23;;;;;;;;;;4928256;29;20273;-86
2023/10/04 01:53:08;;;;;;;10.03;2.53;;;;;;;;;;4933843;28;20227;-84
2023/10/04 01:55:34;;;;;;;6.20;2.67;;;;;;;;;;4922049;29;20226;-86
2023/10/04 01:58:04;;;;;;;4.33;2.57;;;;;;;;;;4923993;29;20219;-85
2023/10/04 02:00:30;;;;;;;4.60;2.77;;;;;;;;;;4942655;29;21027;-87
2023/10/04 02:02:59;;;;;;;4.83;2.73;;;;;;;;;;4926343;29;20234;-87
2023/10/04 02:05:37;;;;;;;4.20;2.03;;;;;;;;;;4938057;28;20223;-87
2023/10/04 02:08:12;;;;;;;3.90;2.33;;;;;;;;;;4928644;29;20257;-85
2023/10/04 02:10:38;;;;;;;4.67;2.60;;;;;;;;;;4940631;29;20213;-85
2023/10/04 02:13:08;;;;;;;5.97;2.30;;;;;;;;;;4944996;28;20211;-87
2023/10/04 02:15:37;;;;;;;5.17;2.10;;;;;;;;;;4942808;28;20222;-85
2023/10/04 02:18:08;;;;;;;4.70;2.30;;;;;;;;;;4934457;28;20257;-86
2023/10/04 02:20:34;;;;;;;4.83;2.23;;;;;;;;;;4925991;29;20241;-84
2023/10/04 02:23:07;;;;;;;4.83;2.17;;;;;;;;;;4923325;29;20228;-85
2023/10/04 02:25:33;;;;;;;3.57;2.40;;;;;;;;;;4922452;29;20310;-87
2023/10/04 02:28:08;;;;;;;7.20;2.40;;;;;;;;;;4934799;28;20223;-82
2023/10/04 02:30:40;;;;;;;4.53;2.50;;;;;;;;;;4958158;28;20298;-86
2023/10/04 02:33:09;;;;;;;5.57;2.13;;;;;;;;;;4915299;28;20247;-85
2023/10/04 02:35:43;;;;;;;4.57;2.37;;;;;;;;;;4924456;28;20220;-85
2023/10/04 02:38:26;;;;;;;5.47;2.10;;;;;;;;;;4938864;28;20223;-84
2023/10/04 02:40:53;;;;;;;6.30;2.60;;;;;;;;;;4940126;29;20285;-86
2023/10/04 02:43:20;;;;;;;4.33;2.20;;;;;;;;;;4949183;28;20229;-86
2023/10/04 02:45:49;;;;;;;3.43;2.40;;;;;;;;;;4941245;29;20234;-85
2023/10/04 02:48:17;;;;;;;6.33;2.67;;;;;;;;;;4924342;28;20298;-84
2023/10/04 02:50:45;;;;;;;4.13;2.40;;;;;;;;;;4923320;29;20227;-85
2023/10/04 02:53:16;;;;;;;4.40;2.23;;;;;;;;;;4920688;28;20330;-87
2023/10/04 02:55:42;;;;;;;6.13;2.33;;;;;;;;;;4926426;29;20223;-86
2023/10/04 02:58:09;;;;;;;4.37;2.20;;;;;;;;;;4922150;28;20250;-88
2023/10/04 03:00:44;;;;;;;3.70;2.40;;;;;;;;;;4924493;29;20310;-87
2023/10/04 03:03:19;;;;;;;6.40;2.73;;;;;;;;;;4933298;28;20218;-83
2023/10/04 03:05:47;;;;;;;6.47;2.70;;;;;;;;;;4927246;28;20227;-88
2023/10/04 03:08:18;;;;;;;4.23;2.30;;;;;;;;;;4938721;28;20570;-84
2023/10/04 03:10:45;;;;;;;6.83;2.70;;;;;;;;;;4938173;29;20259;-87
2023/10/04 03:13:25;;;;;;;9.43;2.40;;;;;;;;;;4924303;28;20223;-84
2023/10/04 03:15:57;;;;;;;3.20;2.30;;;;;;;;;;4921327;29;20223;-85
2023/10/04 03:18:25;;;;;;;4.27;2.27;;;;;;;;;;4924399;28;20242;-84
2023/10/04 03:23:34;;;;;;;6.30;2.60;;;;;;;;;;4940326;28;20238;-85
2023/10/04 03:26:03;;;;;;;3.57;2.30;;;;;;;;;;4911341;29;20277;-86
2023/10/04 03:28:33;;;;;;;6.60;2.47;;;;;;;;;;4938924;29;20228;-84
2023/10/04 03:31:09;;;;;;;4.30;2.60;;;;;;;;;;4925474;29;20579;-84
2023/10/04 03:33:40;;;;;;;4.20;2.60;;;;;;;;;;4940109;28;20218;-85
2023/10/04 03:36:06;;;;;;;6.03;2.60;;;;;;;;;;4940557;28;20293;-86
2023/10/04 03:38:36;;;;;;;3.00;2.43;;;;;;;;;;4940068;29;20658;-84
2023/10/04 03:41:04;;;;;;;8.97;2.50;;;;;;;;;;4938697;28;20226;-84
2023/10/04 03:43:35;;;;;;;9.87;2.90;;;;;;;;;;4924797;29;20237;-85
2023/10/04 03:46:16;;;;;;;5.70;2.80;;;;;;;;;;4926053;29;20222;-79
2023/10/04 03:48:46;;;;;;;5.07;2.90;;;;;;;;;;4913823;29;20226;-78
2023/10/04 03:51:11;;;;;;;8.27;3.07;;;;;;;;;;4918423;28;20221;-79
2023/10/04 03:53:37;;;;;;;3.83;2.43;;;;;;;;;;4944119;29;20219;-79
2023/10/04 03:56:04;;;;;;;5.00;2.77;;;;;;;;;;4927213;28;20223;-77
2023/10/04 03:58:35;;;;;;;6.37;3.00;;;;;;;;;;4944330;29;20234;-79
2023/10/04 04:04:48;;;;;;;5.50;3.07;;;;;;;;;;4963682;28;20262;-79
2023/10/04 04:07:14;;;;;;;4.90;2.77;;;;;;;;;;4934802;28;20215;-79
2023/10/04 04:09:41;;;;;;;5.33;2.83;;;;;;;;;;4933913;29;20254;-80
2023/10/04 04:12:09;;;;;;;5.87;3.07;;;;;;;;;;4965770;28;20242;-78
2023/10/04 04:14:35;;;;;;;4.03;2.63;;;;;;;;;;4943885;29;20234;-79
2023/10/04 04:17:01;;;;;;;5.67;3.03;;;;;;;;;;4949565;29;20227;-78
2023/10/04 04:19:30;;;;;;;8.07;2.93;;;;;;;;;;4940850;28;20957;-80
2023/10/04 04:21:57;;;;;;;5.43;2.77;;;;;;;;;;4951701;29;20222;-82
2023/10/04 04:24:25;;;;;;;6.87;3.10;;;;;;;;;;4963971;28;20233;-80
2023/10/04 04:26:55;;;;;;;8.23;3.07;;;;;;;;;;4951932;28;20261;-80
2023/10/04 04:29:20;;;;;;;6.73;2.87;;;;;;;;;;4943999;28;20219;-80
2023/10/04 04:31:47;;;;;;;3.87;2.67;;;;;;;;;;4929365;29;20238;-80
2023/10/04 04:34:22;;;;;;;5.37;2.90;;;;;;;;;;4914393;28;20350;-80
2023/10/04 04:36:51;;;;;;;6.43;2.77;;;;;;;;;;4942558;28;20227;-80
2023/10/04 04:39:20;;;;;;;4.53;3.20;;;;;;;;;;4943075;28;20576;-80
2023/10/04 04:41:52;;;;;;;5.40;2.97;;;;;;;;;;4946111;29;20325;-79
2023/10/04 04:44:29;;;;;;;4.50;3.03;;;;;;;;;;4930058;28;20252;-80
2023/10/04 04:47:04;;;;;;;6.43;3.43;;;;;;;;;;4955370;28;20231;-78
2023/10/04 04:49:32;;;;;;;4.97;3.30;;;;;;;;;;4962032;28;20233;-80
2023/10/04 04:52:00;;;;;;;5.97;3.17;;;;;;;;;;4938980;28;20235;-80
2023/10/04 04:54:27;;;;;;;6.57;3.50;;;;;;;;;;4973620;28;20293;-80
2023/10/04 04:56:53;;;;;;;8.33;3.40;;;;;;;;;;4931990;28;20231;-81
2023/10/04 04:59:22;;;;;;;10.47;3.20;;;;;;;;;;4942714;28;20248;-79
2023/10/04 05:01:50;;;;;;;5.07;3.03;;;;;;;;;;4959121;28;20226;-79
2023/10/04 05:04:19;;;;;;;4.40;3.13;;;;;;;;;;4940822;28;20643;-79
2023/10/04 05:06:47;;;;;;;5.00;3.47;;;;;;;;;;4927241;29;20222;-79
2023/10/04 05:09:13;;;;;;;5.20;2.90;;;;;;;;;;4941307;28;20227;-79
2023/10/04 05:11:39;;;;;;;5.60;2.90;;;;;;;;;;4929945;28;20286;-81
2023/10/04 05:14:09;;;;;;;5.17;2.87;;;;;;;;;;4927389;28;20226;-79
2023/10/04 05:16:34;;;;;;;8.10;3.43;;;;;;;;;;4928782;29;20226;-79
2023/10/04 05:19:04;;;;;;;5.30;3.20;;;;;;;;;;4944387;28;20231;-81
2023/10/04 05:21:34;;;;;;;6.67;3.10;;;;;;;;;;4929175;29;20699;-79
2023/10/04 05:24:05;;;;;;;4.93;3.10;;;;;;;;;;4944918;29;20238;-79
2023/10/04 05:26:31;;;;;;;8.73;3.33;;;;;;;;;;4929036;29;20226;-80
2023/10/04 05:29:08;;;;;;;5.07;2.90;;;;;;;;;;4939834;28;20313;-79
2023/10/04 05:31:33;;;;;;;8.40;2.97;;;;;;;;;;4928540;28;20616;-80
2023/10/04 05:34:01;;;;;;;9.10;3.13;;;;;;;;;;4957300;28;20238;-80
2023/10/04 05:36:26;;;;;;;5.93;3.27;;;;;;;;;;4943513;28;20223;-80
2023/10/04 05:38:52;;;;;;;9.50;3.57;;;;;;;;;;4938061;29;20230;-79
2023/10/04 05:41:20;;;;;;;7.93;3.47;;;;;;;;;;4919036;28;20223;-82
2023/10/04 05:43:49;;;;;;;7.10;3.37;;;;;;;;;;4932352;29;20238;-80
2023/10/04 05:46:16;;;;;;;6.83;2.97;;;;;;;;;;4964125;28;20231;-81
2023/10/04 05:48:51;;;;;;;6.37;3.00;;;;;;;;;;4954157;28;20233;-79
2023/10/04 05:51:20;;;;;;;11.20;3.40;;;;;;;;;;4943392;28;20246;-80
2023/10/04 05:53:51;;;;;;;4.10;2.97;;;;;;;;;;4943099;29;20215;-80
2023/10/04 05:56:20;;;;;;;5.83;3.03;;;;;;;;;;4951697;28;20223;-81
2023/10/04 05:58:46;;;;;;;5.07;3.40;;;;;;;;;;4944453;29;20241;-82
2023/10/04 06:01:17;;;;;;;5.63;3.10;;;;;;;;;;4931280;28;20211;-80
2023/10/04 06:03:43;;;;;;;5.00;3.17;;;;;;;;;;4974617;28;20233;-79
2023/10/04 06:06:14;;;;;;;7.00;3.40;;;;;;;;;;4929136;28;20222;-79
2023/10/04 06:08:39;;;;;;;7.67;3.53;;;;;;;;;;4961063;28;20237;-79
2023/10/04 06:11:05;;;;;;;6.33;3.47;;;;;;;;;;4921167;28;20604;-78
2023/10/04 06:13:30;;;;;;;10.37;3.60;;;;;;;;;;4924330;28;20614;-79
2023/10/04 06:15:56;;;;;;;12.10;4.20;;;;;;;;;;4970265;28;20624;-78
2023/10/04 06:18:26;;;;;;;8.93;3.73;;;;;;;;;;4947682;28;20227;-79
2023/10/04 06:20:51;;;;;;;5.90;3.50;;;;;;;;;;4931433;28;20246;-80
2023/10/04 06:23:17;;;;;;;6.27;3.23;;;;;;;;;;4937076;28;20239;-80
2023/10/04 06:25:47;;;;;;;9.17;3.37;;;;;;;;;;4923861;29;20219;-79
2023/10/04 06:28:13;;;;;;;6.87;3.63;;;;;;;;;;4936804;28;20491;-81
2023/10/04 06:30:42;;;;;;;6.23;3.50;;;;;;;;;;4928178;29;20223;-77
2023/10/04 06:33:13;;;;;;;5.50;3.30;;;;;;;;;;4919058;28;20224;-78
2023/10/04 06:35:42;;;;;;;10.00;3.87;;;;;;;;;;4938338;28;20317;-78
2023/10/04 06:38:11;;;;;;;7.73;3.33;;;;;;;;;;4914373;28;20262;-79
2023/10/04 06:40:40;;;;;;;6.30;3.03;;;;;;;;;;4928706;29;20232;-80
2023/10/04 06:43:07;;;;;;;7.53;3.63;;;;;;;;;;4924694;28;20746;-77
2023/10/04 06:45:36;;;;;;;5.10;2.90;;;;;;;;;;4937006;29;20238;-79
2023/10/04 06:48:04;;;;;;;6.17;3.30;;;;;;;;;;4964723;28;20244;-77
2023/10/04 06:50:32;;;;;;;6.57;3.40;;;;;;;;;;4930981;28;20238;-78
2023/10/04 06:53:03;;;;;;;5.37;3.30;;;;;;;;;;4941422;28;20223;-78
2023/10/04 06:55:38;;;;;;;9.90;3.30;;;;;;;;;;4945106;28;20223;-78
2023/10/04 06:58:04;;;;;;;4.03;2.93;;;;;;;;;;4943288;28;20231;-81
2023/10/04 07:00:36;;;;;;;7.70;3.77;;;;;;;;;;4943722;29;20214;-81
2023/10/04 07:03:01;;;;;;;6.03;3.23;;;;;;;;;;4926419;29;20235;-78
2023/10/04 07:05:37;;;;;;;8.87;3.27;;;;;;;;;;4922950;28;20223;-79
2023/10/04 07:08:04;;;;;;;10.70;3.47;;;;;;;;;;4957292;28;20227;-78
2023/10/04 07:10:30;;;;;;;4.67;2.83;;;;;;;;;;4965931;28;20607;-79
2023/10/04 07:12:59;;;;;;;6.70;3.40;;;;;;;;;;4994956;23;20225;-72
2023/10/04 07:15:27;;;;;;;4.20;2.60;;;;;;;;;;4997277;28;20270;-73
2023/10/04 07:17:57;;;;;;;8.03;3.70;;;;;;;;;;4991381;28;20232;-73
2023/10/04 07:20:24;;;;;;;5.10;2.93;;;;;;;;;;4979066;28;20221;-75
2023/10/04 07:22:51;;;;;;;7.20;3.00;;;;;;;;;;4997758;28;20223;-73
2023/10/04 07:25:21;;;;;;;6.53;3.15;;;;;;;;;;4952308;28;20225;-73
2023/10/04 07:27:47;;;;;;;3.95;2.90;;;;;;;;;;4999739;28;20590;-72
2023/10/04 07:30:13;;;;;;;6.57;2.93;;;;;;;;;;4969264;28;20221;-73
2023/10/04 07:32:42;;;;;;;4.57;2.60;;;;;;;;;;4985325;28;20225;-72
2023/10/04 07:35:16;;;;;;;6.13;3.20;;;;;;;;;;4986169;28;20683;-72
2023/10/04 07:37:43;;;;;;;5.73;2.90;;;;;;;;;;4990914;28;20371;-72
2023/10/04 07:40:10;;;;;;;5.10;2.83;;;;;;;;;;4999872;28;20229;-73
2023/10/04 07:42:38;;;;;;;4.77;2.73;;;;;;;;;;4969244;28;20221;-73
2023/10/04 07:45:10;;;;;;;6.63;2.87;;;;;;;;;;4968119;28;20213;-74
2023/10/04 07:47:41;;;;;;;5.47;2.60;;;;;;;;;;4967816;28;20220;-73
2023/10/04 07:50:22;;;;;;;6.47;2.80;;;;;;;;;;4969469;28;20213;-73
2023/10/04 07:52:51;;;;;;;8.93;3.00;;;;;;;;;;4992476;28;20249;-72
2023/10/04 07:55:19;;;;;;;6.73;2.63;;;;;;;;;;4997666;28;20245;-73
2023/10/04 07:57:48;;;;;;;13.80;3.07;;;;;;;;;;4997765;28;20229;-73
2023/10/04 08:00:17;;;;;;;8.40;3.20;;;;;;;;;;4989829;28;20221;-74
2023/10/04 08:02:46;;;;;;;5.00;2.57;;;;;;;;;;4971611;28;20221;-73
2023/10/04 08:05:20;;;;;;;5.93;2.70;;;;;;;;;;4987730;28;20217;-73
2023/10/04 08:07:56;;;;;;;5.20;2.83;;;;;;;;;;4949975;28;20259;-73
2023/10/04 08:10:26;;;;;;;5.33;2.67;;;;;;;;;;4984245;28;20221;-74
2023/10/04 08:12:59;;;;;;;6.83;2.90;;;;;;;;;;4976077;28;20217;-73
2023/10/04 08:15:25;;;;;;;5.43;2.47;;;;;;;;;;4999170;28;20233;-73
2023/10/04 08:17:52;;;;;;;9.10;3.08;;;;;;;;;;4973779;28;20221;-72
2023/10/04 08:20:22;;;;;;;6.38;2.67;;;;;;;;;;4962671;28;20217;-73
2023/10/04 08:22:50;;;;;;;7.53;2.87;;;;;;;;;;4988349;28;20219;-73
2023/10/04 08:25:25;;;;;;;4.88;2.78;;;;;;;;;;4964442;28;20312;-72
2023/10/04 08:27:50;;;;;;;6.03;2.70;;;;;;;;;;4989151;28;20271;-72
2023/10/04 08:30:17;;;;;;;7.38;2.97;;;;;;;;;;4972414;28;20225;-72
2023/10/04 08:32:48;;;;;;;5.13;2.50;;;;;;;;;;4965706;28;20212;-73
2023/10/04 08:35:28;;;;;;;4.40;2.60;;;;;;;;;;4964674;28;20252;-72
2023/10/04 08:37:57;;;;;;;4.33;2.50;;;;;;;;;;4994364;28;20352;-73
2023/10/04 08:40:24;;;;;;;4.67;2.43;;;;;;;;;;4973018;28;20220;-72
2023/10/04 08:42:52;;;;;;;16.33;3.00;;;;;;;;;;4999940;28;20228;-72
2023/10/04 08:45:21;;;;;;;6.82;2.58;;;;;;;;;;4965340;28;20572;-72
2023/10/04 08:47:51;;;;;;;4.45;2.35;;;;;;;;;;4981946;28;20280;-73
2023/10/04 08:50:43;;;;;;;7.80;2.85;;;;;;;;;;4987004;28;20244;-72
2023/10/04 08:53:48;;;;;;;3.58;2.25;;;;;;;;;;4976026;28;20216;-73
2023/10/04 08:56:14;;;;;;;4.53;2.35;;;;;;;;;;4995278;28;20280;-72
2023/10/04 08:58:43;;;;;;;6.50;2.47;;;;;;;;;;4985503;28;20248;-73
2023/10/04 09:01:11;;;;;;;5.35;2.67;;;;;;;;;;4980866;28;20224;-75
2023/10/04 09:03:37;;;;;;;7.95;3.15;;;;;;;;;;4967519;28;20648;-73
2023/10/04 09:06:05;;;;;;;7.85;2.95;;;;;;;;;;4968114;28;20228;-74
2023/10/04 09:08:31;;;;;;;5.57;2.72;;;;;;;;;;4982629;28;20216;-73
2023/10/04 09:10:56;;;;;;;7.88;2.60;;;;;;;;;;4971141;28;20214;-74
2023/10/04 09:13:26;;;;;;;6.30;2.38;;;;;;;;;;4979518;28;20272;-73
2023/10/04 09:15:52;;;;;;;6.90;2.90;;;;;;;;;;4988096;28;20228;-74
2023/10/04 09:18:26;;;;;;;8.63;2.95;;;;;;;;;;4967506;28;20324;-74
2023/10/04 09:20:54;;;;;;;6.75;2.83;;;;;;;;;;4958780;28;20221;-74
2023/10/04 09:23:23;;;;;;;7.18;2.85;;;;;;;;;;4981615;28;20312;-73
2023/10/04 09:25:55;;;;;;;5.45;2.50;;;;;;;;;;4969957;28;20264;-75
2023/10/04 09:28:36;;;;;;;9.18;3.17;;;;;;;;;;4956243;28;20221;-73
2023/10/04 09:31:08;;;;;;;6.07;2.60;;;;;;;;;;4975309;28;20693;-73
2023/10/04 09:33:41;;;;;;;9.15;2.97;;;;;;;;;;4982522;28;20279;-73
2023/10/04 09:36:07;;;;;;;5.85;2.88;;;;;;;;;;5000272;28;20301;-72
2023/10/04 09:38:35;;;;;;;6.40;2.58;;;;;;;;;;4983251;28;20225;-73
2023/10/04 09:41:06;;;;;;;4.47;2.38;;;;;;;;;;4998340;28;20213;-73
2023/10/04 09:43:35;;;;;;;5.90;2.83;;;;;;;;;;4981592;28;20217;-74
2023/10/04 09:46:02;;;;;;;6.82;2.60;;;;;;;;;;4984297;28;20235;-73
2023/10/04 09:48:33;;;;;;;10.38;3.17;;;;;;;;;;4969278;28;20256;-73
2023/10/04 09:51:05;;;;;;;5.57;2.85;;;;;;;;;;4990226;28;20221;-73
2023/10/04 09:53:36;;;;;;;6.75;3.13;;;;;;;;;;4977008;28;20229;-73
2023/10/04 09:56:02;;;;;;;11.57;3.47;;;;;;;;;;4944564;28;20221;-74
2023/10/04 09:58:32;;;;;;;8.93;2.92;;;;;;;;;;4979472;28;20652;-74
2023/10/04 10:01:11;;;;;;;6.65;3.13;;;;;;;;;;4998283;28;20304;-73
2023/10/04 10:03:47;;;;;;;5.03;3.00;;;;;;;;;;4988947;28;20278;-74
2023/10/04 10:06:21;;;;;;;5.05;3.15;;;;;;;;;;4983754;28;20217;-74
2023/10/04 10:08:50;;;;;;;9.82;3.30;;;;;;;;;;4982454;28;20346;-74
2023/10/04 10:11:16;;;;;;;5.20;2.70;;;;;;;;;;4965315;28;20221;-77
2023/10/04 10:13:45;;;;;;;3.50;2.42;;;;;;;;;;4980267;28;20301;-74
2023/10/04 10:16:13;;;;;;;6.63;3.28;;;;;;;;;;4965784;28;20283;-73
2023/10/04 10:18:39;;;;;;;6.07;2.88;;;;;;;;;;4951937;28;20283;-73
2023/10/04 10:21:05;;;;;;;13.25;3.03;;;;;;;;;;4971239;28;20420;-73
2023/10/04 10:23:33;;;;;;;6.15;2.83;;;;;;;;;;4983825;28;20239;-73
2023/10/04 10:26:16;;;;;;;8.35;2.92;;;;;;;;;;4976912;28;20232;-72
2023/10/04 10:28:42;;;;;;;6.55;2.30;;;;;;;;;;4999821;28;20581;-73
2023/10/04 10:31:17;;;;;;;10.02;3.15;;;;;;;;;;4996657;28;20222;-73
2023/10/04 10:33:43;;;;;;;5.20;2.92;;;;;;;;;;4970802;28;20221;-73
2023/10/04 10:36:10;;;;;;;5.45;3.00;;;;;;;;;;4987464;28;20218;-73
2023/10/04 10:38:44;;;;;;;5.93;2.83;;;;;;;;;;4987594;28;20229;-76
2023/10/04 10:41:31;;;;;;;5.45;2.60;;;;;;;;;;5001523;28;20706;-74
2023/10/04 10:44:19;;;;;;;4.57;2.92;;;;;;;;;;4983382;28;20303;-74
2023/10/04 10:46:57;;;;;;;7.18;2.67;;;;;;;;;;5003945;28;20291;-73
2023/10/04 10:49:44;;;;;;;5.38;2.90;;;;;;;;;;4965493;28;20213;-73
2023/10/04 10:52:38;;;;;;;6.88;2.92;;;;;;;;;;5005768;28;20225;-73
2023/10/04 10:55:17;;;;;;;7.05;2.80;;;;;;;;;;4993278;28;20217;-73
2023/10/04 10:57:48;;;;;;;4.35;2.80;;;;;;;;;;4987050;28;20757;-72
2023/10/04 11:02:44;;;;;;;10.07;2.92;;;;;;;;;;4986674;28;20221;-73
2023/10/04 11:05:12;;;;;;;4.05;2.85;;;;;;;;;;4969168;28;20225;-72
2023/10/04 11:07:41;;;;;;;8.48;3.22;;;;;;;;;;4982600;28;20241;-73
2023/10/04 11:10:07;;;;;;;4.38;2.90;;;;;;;;;;4990408;28;20213;-75
2023/10/04 11:12:38;;;;;;;5.75;3.22;;;;;;;;;;4999996;28;20301;-74
2023/10/04 11:15:07;;;;;;;5.00;2.97;;;;;;;;;;4999653;28;20290;-74
2023/10/04 11:17:36;;;;;;;4.25;3.00;;;;;;;;;;5002587;28;20263;-73
2023/10/04 11:20:09;;;;;;;6.47;3.22;;;;;;;;;;5002475;28;20304;-73
2023/10/04 11:22:39;;;;;;;6.80;3.20;;;;;;;;;;4988197;28;20221;-73
2023/10/04 11:25:06;;;;;;;5.35;3.25;;;;;;;;;;4976422;28;20635;-75
2023/10/04 11:27:40;;;;;;;6.70;3.55;;;;;;;;;;4976908;28;20221;-74
2023/10/04 11:30:09;;;;;;;5.00;3.10;;;;;;;;;;4959401;28;20227;-74
2023/10/04 11:32:34;;;;;;;6.60;3.38;;;;;;;;;;4968377;28;20237;-74
2023/10/04 11:35:08;;;;;;;5.60;2.95;;;;;;;;;;4988890;28;20233;-73
2023/10/04 11:37:43;;;;;;;6.78;3.05;;;;;;;;;;4974618;28;20233;-73
2023/10/04 11:40:13;;;;;;;5.72;3.22;;;;;;;;;;4986493;28;20292;-73
2023/10/04 11:42:42;;;;;;;7.53;3.38;;;;;;;;;;4988766;28;20224;-73
2023/10/04 11:45:23;;;;;;;4.45;3.33;;;;;;;;;;4972193;28;20233;-73
2023/10/04 11:48:08;;;;;;;6.68;3.53;;;;;;;;;;4983698;28;20236;-73
2023/10/04 11:50:45;;;;;;;8.27;3.20;;;;;;;;;;4989674;28;20236;-73
2023/10/04 11:53:13;;;;;;;5.72;3.13;;;;;;;;;;4991675;28;20223;-73
2023/10/04 11:55:39;;;;;;;5.53;3.38;;;;;;;;;;4988457;28;20644;-74
2023/10/04 11:58:05;;;;;;;5.72;3.05;;;;;;;;;;4981075;28;20229;-73
2023/10/04 12:00:33;;;;;;;3.53;3.20;;;;;;;;;;4981949;28;20224;-73
2023/10/04 12:03:01;;;;;;;7.10;3.42;;;;;;;;;;4980951;28;20611;-73
2023/10/04 12:05:30;;;;;;;4.30;2.95;;;;;;;;;;4983312;28;20225;-74
2023/10/04 12:07:58;;;;;;;5.28;3.25;;;;;;;;;;4996259;28;20628;-73
2023/10/04 12:10:25;;;;;;;7.53;3.35;;;;;;;;;;4995870;28;20277;-73
2023/10/04 12:12:55;;;;;;;5.63;3.28;;;;;;;;;;4972900;28;20240;-73
2023/10/04 12:15:21;;;;;;;4.65;3.50;;;;;;;;;;4975040;28;20282;-73
2023/10/04 12:17:49;;;;;;;5.45;3.00;;;;;;;;;;4983090;28;20226;-73
2023/10/04 12:20:20;;;;;;;6.38;3.33;;;;;;;;;;4971718;28;20233;-72
2023/10/04 12:22:53;;;;;;;5.72;3.10;;;;;;;;;;4974774;28;20229;-74
2023/10/04 12:25:21;;;;;;;6.57;3.40;;;;;;;;;;4984424;28;20220;-71
2023/10/04 12:27:51;;;;;;;6.07;3.03;;;;;;;;;;4999228;28;20232;-73
2023/10/04 12:30:18;;;;;;;7.22;3.53;;;;;;;;;;4973714;28;20291;-73
2023/10/04 12:32:46;;;;;;;5.40;3.35;;;;;;;;;;4964322;28;20309;-73
2023/10/04 12:35:13;;;;;;;7.38;3.08;;;;;;;;;;4995210;28;20601;-72
2023/10/04 12:37:44;;;;;;;9.02;3.63;;;;;;;;;;4986444;28;20236;-74
2023/10/04 12:40:32;;;;;;;4.93;3.03;;;;;;;;;;4973674;28;20596;-73
2023/10/04 12:42:59;;;;;;;6.57;3.22;;;;;;;;;;4985024;28;20695;-72
2023/10/04 12:45:29;;;;;;;6.20;3.30;;;;;;;;;;4952113;28;20292;-76
2023/10/04 12:47:54;;;;;;;8.80;3.38;;;;;;;;;;4997671;28;20224;-74
2023/10/04 12:50:24;;;;;;;5.97;2.92;;;;;;;;;;4998656;28;20675;-74
2023/10/04 12:52:56;;;;;;;7.80;3.20;;;;;;;;;;4999186;28;20248;-73
2023/10/04 12:55:24;;;;;;;4.57;2.95;;;;;;;;;;4995639;28;20703;-75
2023/10/04 12:57:54;;;;;;;10.40;3.38;;;;;;;;;;4999062;28;20231;-73
2023/10/04 13:00:25;;;;;;;4.47;3.17;;;;;;;;;;4967503;28;20221;-74
2023/10/04 13:02:58;;;;;;;8.82;2.90;;;;;;;;;;4972086;28;20306;-75
2023/10/04 13:05:26;;;;;;;4.45;3.05;;;;;;;;;;4987313;28;20229;-74
2023/10/04 13:07:55;;;;;;;4.75;3.03;;;;;;;;;;5012719;28;20299;-74
2023/10/04 13:10:25;;;;;;;9.77;2.97;;;;;;;;;;4997258;28;20258;-74
2023/10/04 13:12:53;;;;;;;5.25;3.25;;;;;;;;;;4982643;28;20225;-73
2023/10/04 13:15:19;;;;;;;4.93;3.10;;;;;;;;;;4978598;28;20319;-73
2023/10/04 13:17:44;;;;;;;7.85;3.50;;;;;;;;;;4997554;28;20225;-73
2023/10/04 13:20:18;;;;;;;4.53;3.05;;;;;;;;;;4995742;28;20213;-74
2023/10/04 13:22:47;;;;;;;11.02;3.40;;;;;;;;;;4982709;28;20220;-75
2023/10/04 13:25:12;;;;;;;7.72;3.95;;;;;;;;;;4964647;28;20221;-73
2023/10/04 13:27:40;;;;;;;5.25;3.45;;;;;;;;;;4985396;28;20649;-72
2023/10/04 13:30:07;;;;;;;4.60;3.50;;;;;;;;;;4980236;28;20209;-73
2023/10/04 13:32:36;;;;;;;5.65;3.47;;;;;;;;;;4996094;28;20225;-76
2023/10/04 13:35:06;;;;;;;6.35;3.05;;;;;;;;;;4966493;28;20216;-74
2023/10/04 13:37:34;;;;;;;5.03;3.45;;;;;;;;;;4981083;28;20650;-74
2023/10/04 13:40:08;;;;;;;4.57;3.53;;;;;;;;;;4983736;28;20226;-74
2023/10/04 13:42:37;;;;;;;4.90;3.25;;;;;;;;;;4997193;28;20252;-74
2023/10/04 13:45:05;;;;;;;7.63;3.63;;;;;;;;;;4969941;28;20758;-74
2023/10/04 13:47:33;;;;;;;7.15;3.42;;;;;;;;;;4975240;28;20237;-74
2023/10/04 13:50:02;;;;;;;6.35;3.50;;;;;;;;;;4996211;28;20267;-73
2023/10/04 13:52:30;;;;;;;6.30;3.10;;;;;;;;;;4979307;28;20213;-73
2023/10/04 13:54:56;;;;;;;4.38;3.05;;;;;;;;;;4984498;28;20284;-73
2023/10/04 13:57:22;;;;;;;6.18;3.13;;;;;;;;;;4979819;28;20223;-74
2023/10/04 13:59:50;;;;;;;8.00;3.33;;;;;;;;;;4983510;28;20399;-73
2023/10/04 14:02:18;;;;;;;5.20;3.10;;;;;;;;;;4962954;28;20683;-73
2023/10/04 14:04:45;;;;;;;7.35;3.42;;;;;;;;;;4982784;28;20221;-73
2023/10/04 14:07:13;;;;;;;7.25;3.17;;;;;;;;;;4977070;28;20240;-74
2023/10/04 14:09:39;;;;;;;8.77;3.22;;;;;;;;;;5001085;28;20687;-73
2023/10/04 14:12:05;;;;;;;6.32;3.88;;;;;;;;;;4977254;28;20218;-73
2023/10/04 14:14:33;;;;;;;6.10;3.55;;;;;;;;;;4962819;28;20220;-71
2023/10/04 14:17:08;;;;;;;4.78;3.67;;;;;;;;;;4996004;28;20244;-73
2023/10/04 14:19:39;;;;;;;5.20;2.95;;;;;;;;;;4993777;28;20229;-74
2023/10/04 14:22:08;;;;;;;3.60;2.72;;;;;;;;;;4978294;28;20225;-74
2023/10/04 14:24:36;;;;;;;4.68;2.72;;;;;;;;;;4993770;28;20567;-73
2023/10/04 14:27:02;;;;;;;5.43;3.25;;;;;;;;;;4995365;28;20698;-73
2023/10/04 14:29:30;;;;;;;4.78;2.90;;;;;;;;;;4974479;28;20222;-73
2023/10/04 14:31:56;;;;;;;4.07;3.13;;;;;;;;;;4976893;28;20230;-73
2023/10/04 14:34:22;;;;;;;7.05;3.65;;;;;;;;;;4931433;28;20247;-74
2023/10/04 14:36:48;;;;;;;4.82;3.05;;;;;;;;;;4971870;28;20231;-75
2023/10/04 14:39:13;;;;;;;6.55;3.45;;;;;;;;;;4983284;28;20237;-74
2023/10/04 14:41:46;;;;;;;6.38;3.15;;;;;;;;;;4995921;28;20306;-74
2023/10/04 14:44:11;;;;;;;5.70;3.30;;;;;;;;;;5000135;28;20226;-74
2023/10/04 14:46:39;;;;;;;5.88;3.42;;;;;;;;;;4988138;28;20576;-75
2023/10/04 14:49:09;;;;;;;8.18;3.25;;;;;;;;;;4968505;28;20217;-74
2023/10/04 14:51:37;;;;;;;5.63;3.53;;;;;;;;;;4998146;28;20221;-73
2023/10/04 14:54:03;;;;;;;4.53;2.72;;;;;;;;;;4978013;28;20213;-74
2023/10/04 14:56:50;;;;;;;5.07;3.55;;;;;;;;;;4993005;28;20265;-75
2023/10/04 14:59:24;;;;;;;5.80;3.40;;;;;;;;;;4978511;28;20611;-73
2023/10/04 15:01:52;;;;;;;7.60;3.60;;;;;;;;;;4980023;28;20602;-74
2023/10/04 15:04:22;;;;;;;8.30;3.72;;;;;;;;;;4998215;28;20232;-75
2023/10/04 15:06:48;;;;;;;8.57;3.42;;;;;;;;;;4996333;28;20241;-73